Ayacucho, Argentina
Current Conditions -  °F | °C
As of 12:00 AM on Tuesday 23 Dec 2014 (Local Time) from SAZM Reporting Station
Clear Clear  
Wind Chill: 48°   Ceiling: Unl
Heat Index: 48°   Visibility: 6mi
Dew Point: 43°   Wind: 3mph
Humidity: 82%   Direction: 320°NW
Pressure: 30.15"   Gusts: NA
Location:  37.15°S, 58.48°W
Report Text: SAZM 230300Z 32003KT CAVOK 09/06 Q1021
Loading
Personal Weather Stations






























Interactive Weather Map New forecast layout! Learn more

10-Day Weather Forecast

Advertisements
Track Severe Weather on mobile